Map

Track Data

SID SEASON NUMBER BASIN SUBBASIN NAME ISO_TIME NATURE LAT LON WMO_WIND WMO_PRES WMO_AGENCY TRACK_TYPE DIST2LAND LANDFALL IFLAG USA_AGENCY USA_ATCF_ID USA_LAT USA_LON USA_RECORD USA_STATUS USA_WIND USA_PRES USA_SSHS USA_R34_NE USA_R34_SE USA_R34_SW USA_R34_NW USA_R50_NE USA_R50_SE USA_R50_SW USA_R50_NW USA_R64_NE USA_R64_SE USA_R64_SW USA_R64_NW USA_POCI USA_ROCI USA_RMW USA_EYE TOKYO_LAT TOKYO_LON TOKYO_GRADE TOKYO_WIND TOKYO_PRES TOKYO_R50_DIR TOKYO_R50_LONG TOKYO_R50_SHORT TOKYO_R30_DIR TOKYO_R30_LONG TOKYO_R30_SHORT TOKYO_LAND CMA_LAT CMA_LON CMA_CAT CMA_WIND CMA_PRES HKO_LAT HKO_LON HKO_CAT HKO_WIND HKO_PRES NEWDELHI_LAT NEWDELHI_LON NEWDELHI_GRADE NEWDELHI_WIND NEWDELHI_PRES NEWDELHI_CI NEWDELHI_DP NEWDELHI_POCI REUNION_LAT REUNION_LON REUNION_TYPE REUNION_WIND REUNION_PRES REUNION_TNUM REUNION_CI REUNION_RMW REUNION_R34_NE REUNION_R34_SE REUNION_R34_SW REUNION_R34_NW REUNION_R50_NE REUNION_R50_SE REUNION_R50_SW REUNION_R50_NW REUNION_R64_NE REUNION_R64_SE REUNION_R64_SW REUNION_R64_NW BOM_LAT BOM_LON BOM_TYPE BOM_WIND BOM_PRES BOM_TNUM BOM_CI BOM_RMW BOM_R34_NE BOM_R34_SE BOM_R34_SW BOM_R34_NW BOM_R50_NE BOM_R50_SE BOM_R50_SW BOM_R50_NW BOM_R64_NE BOM_R64_SE BOM_R64_SW BOM_R64_NW BOM_ROCI BOM_POCI BOM_EYE BOM_POS_METHOD BOM_PRES_METHOD NADI_LAT NADI_LON NADI_CAT NADI_WIND NADI_PRES WELLINGTON_LAT WELLINGTON_LON WELLINGTON_WIND WELLINGTON_PRES DS824_LAT DS824_LON DS824_STAGE DS824_WIND DS824_PRES TD9636_LAT TD9636_LON TD9636_STAGE TD9636_WIND TD9636_PRES TD9635_LAT TD9635_LON TD9635_WIND TD9635_PRES TD9635_ROCI NEUMANN_LAT NEUMANN_LON NEUMANN_CLASS NEUMANN_WIND NEUMANN_PRES MLC_LAT MLC_LON MLC_CLASS MLC_WIND MLC_PRES USA_GUST BOM_GUST BOM_GUST_PER REUNION_GUST REUNION_GUST_PER USA_SEAHGT USA_SEARAD_NE USA_SEARAD_SE USA_SEARAD_SW USA_SEARAD_NW STORM_SPEED STORM_DIR
1935058S19057 1935 15 SI MM NOT_NAMED 1935-02-26 12:00:00 NR -18.8129 57.3773 spur-other 145 124 ______________ -1 4 219
1935058S19057 1935 15 SI MM NOT_NAMED 1935-02-26 15:00:00 NR -18.9626 57.2448 spur-other 126 116 ______________ -1 4 214
1935058S19057 1935 15 SI MM NOT_NAMED 1935-02-26 18:00:00 NR -19.1198 57.1558 spur-other 116 98 ______________ -1 4 202
1935058S19057 1935 15 SI MM NOT_NAMED 1935-02-26 21:00:00 NR -19.2933 57.1036 spur-other 98 79 ______________ -1 4 190
1935058S19057 1935 15 SI MM NOT_NAMED 1935-02-27 00:00:00 NR -19.4919 57.0815 spur-other 79 61 ______________ -1 4 182
1935058S19057 1935 15 SI MM NOT_NAMED 1935-02-27 03:00:00 NR -19.7245 57.0825 spur-other 61 43 ______________ -1 5 179
1935058S19057 1935 15 SI MM NOT_NAMED 1935-02-27 06:00:00 NR -20.0000 57.1000 reunion spur-other 43 30 _____O________ -1 -20.0000 57.1000 99 9.90000 6 178
1935058S19057 1935 15 SI MM NOT_NAMED 1935-02-27 09:00:00 NR -20.3332 57.0947 spur-other 30 20 _____P________ -1 -20.4374 57.1489 99 7 0
1935058S19057 1935 15 SI MM NOT_NAMED 1935-02-27 12:00:00 NR -20.7071 57.1122 spur-other 30 30 _____P________ -1 -20.8750 57.1982 99 8 176
1935058S19057 1935 15 SI MM NOT_NAMED 1935-02-27 15:00:00 NR -21.1164 57.1491 spur-other 70 67 _____P________ -1 -21.3126 57.2477 99 9 175
1935058S19057 1935 15 SI MM NOT_NAMED 1935-02-27 18:00:00 NR -21.5555 57.2018 spur-other 123 123 _____P________ -1 -21.7502 57.2976 99 9 173
1935058S19057 1935 15 SI MM NOT_NAMED 1935-02-27 21:00:00 NR -22.0189 57.2668 spur-other 167 167 _____P________ -1 -22.1879 57.3477 99 10 172
1935058S19057 1935 15 SI MM NOT_NAMED 1935-02-28 00:00:00 NR -22.5011 57.3406 spur-other 204 204 _____P________ -1 -22.6254 57.3982 99 10 172
1935058S19057 1935 15 SI MM NOT_NAMED 1935-02-28 03:00:00 NR -22.9966 57.4195 spur-other 251 251 _____P________ -1 -23.0628 57.4489 99 10 172
1935058S19057 1935 15 SI MM NOT_NAMED 1935-02-28 06:00:00 NR -23.5000 57.5000 reunion spur-other 301 301 _____O________ -1 -23.5000 57.5000 99 9.90000 10 172
1935058S19057 1935 15 SI MM NOT_NAMED 1935-02-28 09:00:00 NR -24.0068 57.5789 spur-other 353 353 _____P________ -1 -24.0124 57.5728 99 10 172
1935058S19057 1935 15 SI MM NOT_NAMED 1935-02-28 12:00:00 NR -24.5158 57.6560 spur-other 407 407 _____P________ -1 -24.5250 57.6462 99 10 172
1935058S19057 1935 15 SI MM NOT_NAMED 1935-02-28 15:00:00 NR -25.0268 57.7317 spur-other 455 455 _____P________ -1 -25.0378 57.7202 99 10 173
1935058S19057 1935 15 SI MM NOT_NAMED 1935-02-28 18:00:00 NR -25.5394 57.8062 spur-other 510 510 _____P________ -1 -25.5505 57.7949 99 10 173
1935058S19057 1935 15 SI MM NOT_NAMED 1935-02-28 21:00:00 NR -26.0535 57.8799 spur-other 574 574 _____P________ -1 -26.0632 57.8702 99 10 173
1935058S19057 1935 15 SI MM NOT_NAMED 1935-03-01 00:00:00 NR -26.5685 57.9532 spur-other 630 630 _____P________ -1 -26.5757 57.9461 99 10 173
1935058S19057 1935 15 SI MM NOT_NAMED 1935-03-01 03:00:00 NR -27.0842 58.0264 spur-other 681 681 _____P________ -1 -27.0880 58.0227 99 10 173
1935058S19057 1935 15 SI MM NOT_NAMED 1935-03-01 06:00:00 NR -27.6000 58.1000 reunion spur-other 737 _____O________ -1 -27.6000 58.1000 99 9.90000 10 172

About IBTrACS Database

This database is a web-friendly format of International Best Track Archive for Climate Stewardship (IBTrACS), a global best track data archive curated by NOAA dating back to 1842.

Updated: 2021-12-03